createdAt,value
2018-02-21T00:01:15.971Z,15.30
2018-02-21T00:03:43.544Z,16.23
2018-02-21T00:06:11.222Z,11.40
2018-02-21T00:08:38.787Z,13.97
2018-02-21T00:11:06.326Z,20.40
2018-02-21T00:13:34.422Z,16.53
2018-02-21T00:16:01.974Z,15.77
2018-02-21T00:18:29.514Z,16.73
2018-02-21T00:20:57.096Z,16.00
2018-02-21T00:23:24.644Z,20.17
2018-02-21T00:25:52.195Z,20.80
2018-02-21T00:28:20.065Z,13.80
2018-02-21T00:30:47.600Z,19.83
2018-02-21T00:33:15.139Z,16.53
2018-02-21T00:35:42.714Z,24.90
2018-02-21T00:38:10.259Z,31.77
2018-02-21T00:40:37.807Z,17.20
2018-02-21T00:43:05.684Z,18.70
2018-02-21T00:45:33.240Z,18.27
2018-02-21T00:48:00.786Z,19.77
2018-02-21T00:50:28.382Z,26.70
2018-02-21T00:52:55.936Z,20.50
2018-02-21T00:55:23.480Z,35.40
2018-02-21T00:57:51.071Z,33.63
2018-02-21T01:00:18.654Z,16.87
2018-02-21T01:02:46.212Z,15.50
2018-02-21T01:05:13.959Z,18.87
2018-02-21T01:07:41.506Z,17.70
2018-02-21T01:10:09.048Z,16.10
2018-02-21T01:12:36.638Z,16.50
2018-02-21T01:15:04.194Z,16.63
2018-02-21T01:17:31.747Z,27.80
2018-02-21T01:19:59.338Z,40.53
2018-02-21T01:22:26.892Z,22.10
2018-02-21T01:24:54.444Z,14.37
2018-02-21T01:27:22.178Z,26.13
2018-02-21T01:29:49.723Z,18.67
2018-02-21T01:32:17.268Z,17.60
2018-02-21T01:34:44.954Z,21.57
2018-02-21T01:37:12.502Z,15.57
2018-02-21T01:39:40.057Z,17.87
2018-02-21T01:42:07.647Z,11.47
2018-02-21T01:44:35.193Z,12.70
2018-02-21T01:47:02.763Z,11.57
2018-02-21T01:49:30.505Z,13.77
2018-02-21T01:51:58.054Z,11.80
2018-02-21T01:54:25.608Z,10.73
2018-02-21T01:56:53.197Z,14.60
2018-02-21T01:59:20.730Z,12.37
2018-02-21T02:01:48.288Z,16.83
2018-02-21T02:04:15.915Z,11.93
2018-02-21T02:06:43.459Z,15.13
2018-02-21T02:09:11.006Z,13.80
2018-02-21T02:11:38.881Z,13.60
2018-02-21T02:14:06.422Z,12.70
2018-02-21T02:16:33.973Z,12.57
2018-02-21T02:19:01.520Z,12.97
2018-02-21T02:21:29.076Z,17.33
2018-02-21T02:23:57.703Z,11.57
2018-02-21T02:26:25.241Z,15.43
2018-02-21T02:28:52.954Z,13.33
2018-02-21T02:31:20.692Z,19.40
2018-02-21T02:33:48.233Z,13.10
2018-02-21T02:36:15.779Z,17.30
2018-02-21T02:38:55.375Z,12.07
2018-02-21T02:41:22.932Z,14.27
2018-02-21T02:43:50.478Z,17.50
2018-02-21T02:46:18.068Z,15.00
2018-02-21T02:48:45.669Z,14.97
2018-02-21T02:51:13.243Z,14.90
2018-02-21T02:53:40.873Z,15.53
2018-02-21T02:56:08.434Z,14.47
2018-02-21T02:58:35.986Z,20.03
2018-02-21T03:01:03.563Z,14.47
2018-02-21T03:03:31.110Z,13.10
2018-02-21T03:05:58.643Z,13.77
2018-02-21T03:08:26.515Z,14.30
2018-02-21T03:10:54.054Z,14.40
2018-02-21T03:13:21.594Z,14.83
2018-02-21T03:15:49.328Z,11.10
2018-02-21T03:18:16.880Z,11.87
2018-02-21T03:20:44.433Z,12.83
2018-02-21T03:23:12.013Z,9.03
2018-02-21T03:25:39.551Z,11.33
2018-02-21T03:28:07.081Z,10.17
2018-02-21T03:30:34.670Z,10.23
2018-02-21T03:33:02.251Z,11.07
2018-02-21T03:35:29.795Z,12.67
2018-02-21T03:37:57.470Z,14.23
2018-02-21T03:40:25.014Z,10.73
2018-02-21T03:42:52.563Z,10.90
2018-02-21T03:45:20.187Z,15.57
2018-02-21T03:47:47.718Z,13.47
2018-02-21T03:50:15.268Z,15.57
2018-02-21T03:52:42.864Z,18.13
2018-02-21T03:55:10.411Z,19.27
2018-02-21T03:57:37.960Z,18.03
2018-02-21T04:00:05.665Z,19.07
2018-02-21T04:02:33.217Z,16.33
2018-02-21T04:05:00.761Z,10.23
2018-02-21T04:07:28.813Z,12.90
2018-02-21T04:09:56.361Z,15.73
2018-02-21T04:12:23.925Z,18.77
2018-02-21T04:14:51.691Z,13.87
2018-02-21T04:17:19.283Z,17.77
2018-02-21T04:19:46.823Z,18.57
2018-02-21T04:22:14.527Z,15.03
2018-02-21T04:24:42.079Z,14.93
2018-02-21T04:27:09.627Z,15.70
2018-02-21T04:29:37.195Z,11.40
2018-02-21T04:32:04.759Z,16.80
2018-02-21T04:34:32.310Z,11.07
2018-02-21T04:37:00.174Z,11.97
2018-02-21T04:39:27.713Z,10.07
2018-02-21T04:41:55.251Z,12.00
2018-02-21T04:44:22.979Z,12.07
2018-02-21T04:46:50.524Z,9.37
2018-02-21T04:49:18.065Z,8.83
2018-02-21T04:51:45.654Z,10.53
2018-02-21T04:54:13.240Z,10.17
2018-02-21T04:56:49.574Z,19.87
2018-02-21T04:59:21.829Z,20.17
2018-02-21T05:01:49.418Z,10.93
2018-02-21T05:04:17.295Z,15.30
2018-02-21T05:06:44.843Z,14.17
2018-02-21T05:09:12.391Z,11.03
2018-02-21T05:11:40.074Z,9.60
2018-02-21T05:14:07.620Z,10.47
2018-02-21T05:16:35.199Z,7.57
2018-02-21T05:19:02.753Z,10.70
2018-02-21T05:21:30.299Z,11.40
2018-02-21T05:23:57.886Z,13.40
2018-02-21T05:26:25.450Z,13.53
2018-02-21T05:28:53.010Z,105.47
2018-02-21T05:31:20.593Z,53.87
2018-02-21T05:33:48.164Z,17.10
2018-02-21T05:36:15.750Z,21.70
2018-02-21T05:38:43.626Z,10.10
2018-02-21T05:41:11.182Z,12.40
2018-02-21T05:43:38.724Z,11.57
2018-02-21T05:46:06.302Z,7.53
2018-02-21T05:48:33.854Z,11.03
2018-02-21T05:51:01.384Z,6.40
2018-02-21T05:53:29.112Z,16.00
2018-02-21T05:55:56.668Z,11.77
2018-02-21T05:58:24.816Z,7.43
2018-02-21T06:00:52.490Z,7.07
2018-02-21T06:03:20.051Z,9.53
2018-02-21T06:05:47.600Z,10.13
2018-02-21T06:08:15.206Z,6.70
2018-02-21T06:10:42.741Z,8.70
2018-02-21T06:13:10.285Z,7.70
2018-02-21T06:15:37.862Z,12.27
2018-02-21T06:18:05.395Z,8.40
2018-02-21T06:20:32.947Z,10.20
2018-02-21T06:23:00.696Z,8.50
2018-02-21T06:25:28.255Z,8.97
2018-02-21T06:27:55.814Z,19.70
2018-02-21T06:30:23.430Z,79.10
2018-02-21T06:32:50.967Z,12.23
2018-02-21T06:35:18.524Z,18.63
2018-02-21T06:37:46.102Z,37.67
2018-02-21T06:40:13.643Z,14.93
2018-02-21T06:42:41.194Z,16.37
2018-02-21T06:45:08.941Z,13.53
2018-02-21T06:47:36.493Z,17.47
2018-02-21T06:50:04.080Z,15.70
2018-02-21T06:52:31.658Z,8.87
2018-02-21T06:54:59.213Z,12.77
2018-02-21T06:57:26.745Z,8.27
2018-02-21T06:59:54.335Z,10.33
2018-02-21T07:02:33.531Z,18.27
2018-02-21T07:05:01.130Z,36.00
2018-02-21T07:07:28.723Z,28.00
2018-02-21T07:09:56.280Z,43.60
2018-02-21T07:12:23.877Z,16.90
2018-02-21T07:14:51.467Z,13.73
2018-02-21T07:17:19.027Z,17.73
2018-02-21T07:19:46.628Z,11.10
2018-02-21T07:22:14.190Z,13.03
2018-02-21T07:24:41.779Z,12.60
2018-02-21T07:27:09.374Z,5.57
2018-02-21T07:29:36.915Z,5.23
2018-02-21T07:32:04.463Z,11.43
2018-02-21T07:34:32.057Z,29.20
2018-02-21T07:36:59.621Z,19.77
2018-02-21T07:39:27.166Z,40.73
2018-02-21T07:41:54.920Z,21.90
2018-02-21T07:44:22.500Z,40.20
2018-02-21T07:46:50.034Z,9.43
2018-02-21T07:49:17.617Z,19.20
2018-02-21T07:51:45.162Z,13.33
2018-02-21T07:54:12.738Z,8.77
2018-02-21T07:56:40.340Z,9.03
2018-02-21T07:59:07.883Z,16.13
2018-02-21T08:01:35.427Z,10.33
2018-02-21T08:04:02.995Z,9.10
2018-02-21T08:06:30.552Z,13.90
2018-02-21T08:08:58.114Z,4.40
2018-02-21T08:11:25.983Z,6.90
2018-02-21T08:13:53.538Z,21.63
2018-02-21T08:16:21.083Z,21.97
2018-02-21T08:18:48.620Z,14.33
2018-02-21T08:21:16.192Z,14.33
2018-02-21T08:23:43.758Z,5.00
2018-02-21T08:26:11.307Z,31.60
2018-02-21T08:28:38.846Z,14.40
2018-02-21T08:31:06.428Z,7.20
2018-02-21T08:33:34.009Z,20.87
2018-02-21T08:36:01.559Z,8.30
2018-02-21T08:38:29.152Z,40.73
2018-02-21T08:40:56.712Z,13.77
2018-02-21T08:43:24.834Z,17.37
2018-02-21T08:45:52.590Z,4.03
2018-02-21T08:48:20.174Z,35.07
2018-02-21T08:50:47.733Z,15.53
2018-02-21T08:53:15.347Z,34.73
2018-02-21T08:55:42.900Z,23.00
2018-02-21T08:58:10.474Z,11.97
2018-02-21T09:00:38.045Z,7.27
2018-02-21T09:03:05.599Z,8.60
2018-02-21T09:05:33.176Z,6.17
2018-02-21T09:08:00.751Z,4.13
2018-02-21T09:10:28.299Z,3.20
2018-02-21T09:12:55.836Z,2.83
2018-02-21T09:15:23.519Z,3.40
2018-02-21T09:17:51.057Z,3.07
2018-02-21T09:20:18.607Z,4.97
2018-02-21T09:22:46.345Z,7.33
2018-02-21T09:25:13.904Z,3.43
2018-02-21T09:27:41.461Z,2.90
2018-02-21T09:30:09.152Z,3.10
2018-02-21T09:32:36.713Z,3.40
2018-02-21T09:35:04.271Z,5.00
2018-02-21T09:37:31.997Z,3.20
2018-02-21T09:39:59.545Z,4.97
2018-02-21T09:42:27.094Z,3.20
2018-02-21T09:44:54.834Z,4.83
2018-02-21T09:47:22.378Z,3.20
2018-02-21T09:49:49.930Z,6.60
2018-02-21T09:52:17.508Z,3.67
2018-02-21T09:54:45.050Z,3.67
2018-02-21T09:57:12.603Z,3.27
2018-02-21T09:59:40.197Z,3.63
2018-02-21T10:02:07.735Z,2.90
2018-02-21T10:04:35.273Z,3.83
2018-02-21T10:07:03.135Z,5.40
2018-02-21T10:09:30.703Z,5.83
2018-02-21T10:11:58.272Z,13.10
2018-02-21T10:14:26.791Z,18.97
2018-02-21T10:16:54.343Z,11.30
2018-02-21T10:19:21.879Z,8.03
2018-02-21T10:21:49.540Z,27.03
2018-02-21T10:24:17.108Z,7.53
2018-02-21T10:26:44.721Z,18.63
2018-02-21T10:29:12.305Z,31.57
2018-02-21T10:31:39.849Z,20.17
2018-02-21T10:34:07.426Z,10.90
2018-02-21T10:36:35.297Z,22.17
2018-02-21T10:39:02.871Z,10.87
2018-02-21T10:41:30.427Z,11.40
2018-02-21T10:43:58.014Z,17.53
2018-02-21T10:46:25.567Z,13.57
2018-02-21T10:48:53.110Z,43.83
2018-02-21T10:51:21.721Z,48.07
2018-02-21T10:53:49.274Z,15.63
2018-02-21T10:56:16.850Z,14.43
2018-02-21T10:58:44.528Z,7.20
2018-02-21T11:01:17.514Z,7.83
2018-02-21T11:03:45.088Z,10.90
2018-02-21T11:06:12.647Z,16.87
2018-02-21T11:08:40.210Z,7.53
2018-02-21T11:11:07.943Z,13.83
2018-02-21T11:13:35.507Z,14.77
2018-02-21T11:16:03.058Z,16.60
2018-02-21T11:18:30.610Z,54.30
2018-02-21T11:20:58.160Z,21.23
2018-02-21T11:23:25.891Z,14.47
2018-02-21T11:25:53.426Z,7.50
2018-02-21T11:28:20.965Z,14.33
2018-02-21T11:30:48.648Z,14.80
2018-02-21T11:33:16.195Z,18.43
2018-02-21T11:35:43.769Z,16.87
2018-02-21T11:38:11.356Z,16.07
2018-02-21T11:40:38.947Z,15.03
2018-02-21T11:43:06.496Z,12.47
2018-02-21T11:45:34.081Z,14.10
2018-02-21T11:48:01.623Z,14.53
2018-02-21T11:50:29.163Z,9.83
2018-02-21T11:52:56.746Z,8.83
2018-02-21T11:55:24.283Z,9.83
2018-02-21T11:57:51.829Z,10.40
2018-02-21T12:00:19.501Z,12.40
2018-02-21T12:02:47.099Z,11.70
2018-02-21T12:05:14.643Z,13.77
2018-02-21T12:07:42.329Z,10.90
2018-02-21T12:10:09.878Z,11.27
2018-02-21T12:12:37.414Z,12.00
2018-02-21T12:15:05.042Z,17.00
2018-02-21T12:17:32.598Z,15.03
2018-02-21T12:20:00.162Z,19.27
2018-02-21T12:22:27.756Z,13.13
2018-02-21T12:24:55.358Z,18.77
2018-02-21T12:27:23.110Z,18.60
2018-02-21T12:29:50.782Z,15.03
2018-02-21T12:32:19.131Z,26.87
2018-02-21T12:34:46.698Z,15.13
2018-02-21T12:37:14.307Z,28.93
2018-02-21T12:39:41.879Z,18.37
2018-02-21T12:42:09.425Z,18.03
2018-02-21T12:44:37.427Z,18.53
2018-02-21T12:47:05.032Z,24.23
2018-02-21T12:49:32.595Z,12.93
2018-02-21T12:52:00.173Z,20.73
2018-02-21T12:54:27.725Z,14.17
2018-02-21T12:56:55.273Z,16.50
2018-02-21T12:59:23.069Z,16.63
2018-02-21T13:01:50.605Z,15.67
2018-02-21T13:04:18.168Z,20.00
2018-02-21T13:06:45.751Z,16.03
2018-02-21T13:09:13.335Z,17.37
2018-02-21T13:11:40.903Z,16.23
2018-02-21T13:14:08.487Z,16.73
2018-02-21T13:16:36.028Z,20.97
2018-02-21T13:19:03.578Z,16.03
2018-02-21T13:21:31.270Z,18.73
2018-02-21T13:23:58.819Z,17.60
2018-02-21T13:26:26.362Z,18.17
2018-02-21T13:28:53.957Z,15.77
2018-02-21T13:31:21.520Z,16.13
2018-02-21T13:33:49.084Z,17.70
2018-02-21T13:36:16.688Z,19.17
2018-02-21T13:38:44.244Z,17.83
2018-02-21T13:41:11.789Z,18.07
2018-02-21T13:43:39.747Z,18.00
2018-02-21T13:46:07.309Z,19.67
2018-02-21T13:48:34.873Z,20.07
2018-02-21T13:51:02.933Z,21.60
2018-02-21T13:53:30.501Z,26.97
2018-02-21T13:55:58.061Z,23.03
2018-02-21T13:58:25.947Z,19.10
2018-02-21T14:00:53.507Z,22.33
2018-02-21T14:03:21.067Z,36.67
2018-02-21T14:05:48.777Z,37.70
2018-02-21T14:08:16.330Z,26.50
2018-02-21T14:10:43.882Z,24.03
2018-02-21T14:13:12.111Z,27.53
2018-02-21T14:15:39.681Z,44.83
2018-02-21T14:18:07.406Z,91.43
2018-02-21T14:20:35.130Z,51.37
2018-02-21T14:23:02.688Z,38.77
2018-02-21T14:25:30.234Z,50.77
2018-02-21T14:27:57.834Z,30.97
2018-02-21T14:30:25.397Z,34.17
2018-02-21T14:32:52.964Z,36.13
2018-02-21T14:35:20.548Z,33.87
2018-02-21T14:37:48.139Z,35.20
2018-02-21T14:40:15.716Z,53.87
2018-02-21T14:42:43.408Z,37.50
2018-02-21T14:45:10.987Z,39.17
2018-02-21T14:47:38.535Z,35.23
2018-02-21T14:50:06.228Z,36.50
2018-02-21T14:52:33.785Z,33.13
2018-02-21T14:55:01.335Z,38.23
2018-02-21T14:57:29.080Z,31.33
2018-02-21T14:59:56.652Z,37.67
2018-02-21T15:02:24.206Z,33.20
2018-02-21T15:04:51.943Z,25.10
2018-02-21T15:07:19.530Z,28.37
2018-02-21T15:09:47.117Z,29.93
2018-02-21T15:12:14.706Z,26.40
2018-02-21T15:14:42.268Z,30.60
2018-02-21T15:17:09.828Z,34.60
2018-02-21T15:19:37.379Z,32.37
2018-02-21T15:22:04.931Z,31.67
2018-02-21T15:24:32.519Z,31.37
2018-02-21T15:27:00.083Z,58.70
2018-02-21T15:29:27.647Z,59.47
2018-02-21T15:31:55.563Z,59.10
2018-02-21T15:34:23.107Z,45.00
2018-02-21T15:36:50.674Z,35.07
2018-02-21T15:39:18.370Z,39.60
2018-02-21T15:41:45.920Z,36.63
2018-02-21T15:44:13.501Z,35.30
2018-02-21T15:46:41.291Z,36.17
2018-02-21T15:49:08.865Z,30.67
2018-02-21T15:51:36.421Z,35.43
2018-02-21T15:54:04.300Z,34.10
2018-02-21T15:56:31.857Z,36.70
2018-02-21T15:58:59.423Z,34.80
2018-02-21T16:01:27.028Z,30.00
2018-02-21T16:03:54.596Z,38.90
2018-02-21T16:06:22.162Z,36.40
2018-02-21T16:08:49.772Z,29.50
2018-02-21T16:11:17.325Z,33.33
2018-02-21T16:13:44.908Z,29.67
2018-02-21T16:16:12.661Z,26.33
2018-02-21T16:18:40.231Z,28.43
2018-02-21T16:21:07.773Z,31.17
2018-02-21T16:23:35.393Z,31.80
2018-02-21T16:26:02.946Z,33.67
2018-02-21T16:28:30.509Z,58.90
2018-02-21T16:30:59.124Z,39.37
2018-02-21T16:33:26.666Z,40.13
2018-02-21T16:35:54.206Z,42.20
2018-02-21T16:38:21.930Z,38.87
2018-02-21T16:40:49.480Z,37.27
2018-02-21T16:43:17.025Z,35.60
2018-02-21T16:45:44.732Z,36.40
2018-02-21T16:48:12.285Z,35.67
2018-02-21T16:50:39.835Z,37.77
2018-02-21T16:53:07.706Z,29.90
2018-02-21T16:55:35.273Z,32.67
2018-02-21T16:58:02.831Z,30.73
2018-02-21T17:00:30.419Z,27.20
2018-02-21T17:02:57.985Z,50.50
2018-02-21T17:05:25.542Z,35.50
2018-02-21T17:07:53.227Z,99.30
2018-02-21T17:10:21.642Z,54.87
2018-02-21T17:12:49.237Z,61.33
2018-02-21T17:15:17.024Z,95.23
2018-02-21T17:17:44.594Z,88.43
2018-02-21T17:20:12.178Z,84.40
2018-02-21T17:22:40.003Z,27.83
2018-02-21T17:25:07.589Z,30.97
2018-02-21T17:27:35.194Z,21.60
2018-02-21T17:30:02.803Z,19.70
2018-02-21T17:32:30.366Z,25.30
2018-02-21T17:34:57.991Z,17.60
2018-02-21T17:37:25.602Z,14.70
2018-02-21T17:39:53.167Z,23.70
2018-02-21T17:42:20.745Z,21.57
2018-02-21T17:44:48.374Z,27.57
2018-02-21T17:47:15.968Z,30.87
2018-02-21T17:49:43.525Z,25.90
2018-02-21T17:52:11.140Z,26.57
2018-02-21T17:54:38.714Z,25.07
2018-02-21T17:57:06.268Z,25.27
2018-02-21T17:59:34.048Z,22.40
2018-02-21T18:02:01.630Z,20.30
2018-02-21T18:04:29.185Z,23.47
2018-02-21T18:06:56.800Z,20.70
2018-02-21T18:09:24.397Z,19.70
2018-02-21T18:11:51.979Z,31.53
2018-02-21T18:14:19.582Z,19.83
2018-02-21T18:16:47.162Z,18.23
2018-02-21T18:19:14.731Z,22.63
2018-02-21T18:21:47.799Z,27.33
2018-02-21T18:24:15.371Z,17.73
2018-02-21T18:26:42.918Z,14.53
2018-02-21T18:29:10.695Z,19.73
2018-02-21T18:31:38.260Z,17.20
2018-02-21T18:34:05.841Z,13.83
2018-02-21T18:36:33.542Z,16.83
2018-02-21T18:39:01.096Z,19.13
2018-02-21T18:41:28.648Z,14.43
2018-02-21T18:43:56.558Z,13.00
2018-02-21T18:46:24.136Z,15.27
2018-02-21T18:48:51.784Z,9.63
2018-02-21T18:51:19.373Z,12.73
2018-02-21T18:53:47.005Z,10.87
2018-02-21T18:56:14.675Z,7.97
2018-02-21T18:58:42.703Z,8.30
2018-02-21T19:01:10.617Z,10.27
2018-02-21T19:03:38.215Z,7.80
2018-02-21T19:06:06.253Z,8.83
2018-02-21T19:08:33.983Z,9.23
2018-02-21T19:11:01.651Z,7.07
2018-02-21T19:13:29.373Z,9.00
2018-02-21T19:15:56.957Z,13.20
2018-02-21T19:18:24.612Z,13.00
2018-02-21T19:20:52.344Z,14.33
2018-02-21T19:23:19.932Z,77.70
2018-02-21T19:25:47.567Z,15.67
2018-02-21T19:28:15.371Z,9.73
2018-02-21T19:30:43.094Z,26.57
2018-02-21T19:33:10.902Z,18.70
2018-02-21T19:35:39.434Z,12.23
2018-02-21T19:38:07.347Z,25.13
2018-02-21T19:40:35.037Z,11.50
2018-02-21T19:43:02.749Z,8.50
2018-02-21T19:45:30.428Z,12.17
2018-02-21T19:47:58.084Z,13.60
2018-02-21T19:50:26.003Z,19.27
2018-02-21T19:52:53.727Z,29.93
2018-02-21T19:55:21.355Z,23.23
2018-02-21T19:57:48.993Z,14.77
2018-02-21T20:00:16.623Z,16.40
2018-02-21T20:02:44.243Z,19.47
2018-02-21T20:05:11.922Z,13.30
2018-02-21T20:07:39.543Z,15.57
2018-02-21T20:10:07.172Z,19.67
2018-02-21T20:12:34.808Z,15.43
2018-02-21T20:15:02.406Z,20.47
2018-02-21T20:17:29.981Z,9.47
2018-02-21T20:19:57.556Z,20.73
2018-02-21T20:22:25.112Z,16.23
2018-02-21T20:24:53.043Z,4.90
2018-02-21T20:27:20.642Z,12.20
2018-02-21T20:29:48.235Z,15.17
2018-02-21T20:32:16.019Z,33.47
2018-02-21T20:34:43.627Z,25.43
2018-02-21T20:37:11.206Z,52.27
2018-02-21T20:39:38.810Z,22.83
2018-02-21T20:42:06.406Z,15.23
2018-02-21T20:44:33.996Z,26.40
2018-02-21T20:47:01.799Z,24.20
2018-02-21T20:49:29.341Z,9.63
2018-02-21T20:51:56.903Z,16.83
2018-02-21T20:54:24.653Z,12.07
2018-02-21T20:56:52.226Z,12.60
2018-02-21T20:59:19.774Z,18.40
2018-02-21T21:01:47.502Z,8.87
2018-02-21T21:04:15.065Z,7.80
2018-02-21T21:06:42.630Z,10.07
2018-02-21T21:09:10.228Z,14.30
2018-02-21T21:11:37.802Z,7.50
2018-02-21T21:14:05.360Z,7.23
2018-02-21T21:16:32.951Z,10.73
2018-02-21T21:19:00.507Z,13.17
2018-02-21T21:21:28.051Z,13.03
2018-02-21T21:23:55.728Z,8.90
2018-02-21T21:26:23.276Z,12.50
2018-02-21T21:28:50.821Z,10.07
2018-02-21T21:31:18.415Z,12.50
2018-02-21T21:33:46.000Z,17.80
2018-02-21T21:36:13.556Z,12.43
2018-02-21T21:38:41.286Z,13.83
2018-02-21T21:41:08.835Z,9.97
2018-02-21T21:43:36.383Z,8.80
2018-02-21T21:46:03.968Z,12.30
2018-02-21T21:48:31.519Z,9.27
2018-02-21T21:50:59.083Z,11.50
2018-02-21T21:53:26.834Z,8.03
2018-02-21T21:55:54.379Z,8.77
2018-02-21T21:58:21.924Z,6.83
2018-02-21T22:00:49.569Z,9.67
2018-02-21T22:03:17.130Z,10.50
2018-02-21T22:05:44.698Z,12.03
2018-02-21T22:08:12.281Z,9.37
2018-02-21T22:10:39.826Z,10.43
2018-02-21T22:13:07.372Z,8.83
2018-02-21T22:15:34.959Z,8.83
2018-02-21T22:18:02.486Z,9.47
2018-02-21T22:20:30.093Z,8.80
2018-02-21T22:22:57.674Z,9.93
2018-02-21T22:25:25.225Z,7.23
2018-02-21T22:27:52.783Z,7.37
2018-02-21T22:30:20.393Z,8.43
2018-02-21T22:32:47.929Z,9.63
2018-02-21T22:35:15.463Z,6.40
2018-02-21T22:37:43.324Z,8.23
2018-02-21T22:40:10.870Z,7.40
2018-02-21T22:42:38.420Z,7.77
2018-02-21T22:45:06.303Z,6.70
2018-02-21T22:47:33.838Z,8.87
2018-02-21T22:50:01.389Z,7.90
2018-02-21T22:52:29.110Z,7.03
2018-02-21T22:54:56.659Z,7.77
2018-02-21T22:57:24.194Z,6.67
2018-02-21T22:59:51.920Z,7.60
2018-02-21T23:02:19.461Z,8.00
2018-02-21T23:04:47.046Z,6.67
2018-02-21T23:07:14.672Z,5.57
2018-02-21T23:09:42.213Z,5.87
2018-02-21T23:12:09.808Z,6.07
2018-02-21T23:14:37.356Z,6.03
2018-02-21T23:17:04.904Z,4.23
2018-02-21T23:19:32.447Z,4.30
2018-02-21T23:22:00.173Z,8.40
2018-02-21T23:24:27.727Z,5.60
2018-02-21T23:26:55.269Z,5.50
2018-02-21T23:29:22.994Z,8.77
2018-02-21T23:31:50.552Z,4.97
2018-02-21T23:34:18.095Z,5.23
2018-02-21T23:36:45.966Z,4.50
2018-02-21T23:39:13.506Z,5.47
2018-02-21T23:41:41.044Z,4.73
2018-02-21T23:44:08.778Z,4.33
2018-02-21T23:46:36.305Z,5.07
2018-02-21T23:49:03.865Z,5.07
2018-02-21T23:51:31.449Z,6.00
2018-02-21T23:53:59.031Z,5.93
2018-02-21T23:56:26.553Z,5.70
2018-02-21T23:58:54.114Z,5.07
